Terminal Aerodrome Forecast
Issued by NWS

Home | Current Version | Previous Version | Text Only | Print | Product List | Glossary On
Versions: 1 2 3 4 5 6 7 8 9 10 11 12 13 14 15 16 17
000
FTUS43 KJKL 201000 AAA
TAFSME
TAF AMD
KSME 201005Z 2010/2106 00000KT P6SM SCT250
      TEMPO 2010/2012 5SM BR BKN250
     FM201200 24005KT P6SM FEW035 SCT080 BKN250
     FM210000 24003KT P6SM SCT035 BKN070=

USA.gov is the U.S. government's official web portal to all federal, state and local government web resources and services.